Bangor, MI

3:57 PM EDT on August 30, 2014 (GMT -0400)
South Haven | Change Station
CLOSE
Current Station
Airport
Location: South Haven,
Elevation: 666 ft
Nearby Weather Stations
Active Advisory: Beach Hazard Statement

Elev 666 ft 42.35 °N, 86.26 °W | Updated 43 minutes ago

Scattered Clouds
Scattered Clouds
82 °F
Feels Like 86 °F
N
16
Wind Variable Wind from SSW
Gusts 29 mph

Today
High -- | Low -- °F
--% Chance of Precip.
Yesterday
High -- | Low -- °F
Precip. -- in
7:07 AM 8:21 PM
Waxing Crescent, 24% visible
Pressure 29.85 in
Visibility 10.0 miles
Clouds Scattered Clouds 3300 ft
Scattered Clouds 8000 ft
Heat Index 86 °F
Dew Point 69 °F
Humidity 64%
Rainfall 0.00 in
Snow Depth Not available.
UV 6 out of 12
Pollen 8.20 out of 12
Ozone Good
PM2.5 Good
Flu Activity Not available.
METAR KLWA 301914Z AUTO 21014G25KT 10SM SCT033 SCT080 28/21 A2985 RMK AO2 T02800206

More Conditions Fewer Conditions

Pressure 29.85 in
Visibility 10.0 miles
Clouds Scattered Clouds 3300 ft
Scattered Clouds 8000 ft
Heat Index 86 °F
Dew Point 69 °F
Humidity 64%
Rainfall 0.00 in
Snow Depth Not available.
UV 6 out of 12
Pollen 8.20 out of 12
Ozone Good
PM2.5 Good
Flu Activity Not available.
METAR KLWA 301914Z AUTO 21014G25KT 10SM SCT033 SCT080 28/21 A2985 RMK AO2 T02800206

More Conditions Fewer Conditions

10-Day Weather Forecast

Almanac

Astronomy

Aug. 30, 2014 Rise Set
Actual Time 7:07 AM EDT 8:21 PM EDT
Civil Twilight 6:38 AM EDT 8:50 PM EDT
Nautical Twilight 6:03 AM EDT 9:25 PM EDT
Astronomical Twilight 5:27 AM EDT 10:01 PM EDT
Moon 12:00 PM EDT 10:49 PM EDT
Length of Visible Light 14h 12m
Length of Day
13h 14m
Tomorrow will be 2m 43s shorter.
Waxing Crescent, 24% of the Moon is Illuminated
Today
Waxing Crescent
Sep 2
First Quarter
Sep 8
Full
Sep 15
Last Quarter
Sep 24
New

Today's Extremes

State Highs State Lows

Community

WunderPhotos

Upload Photos

1,748,614 photos uploaded!

WunderBlogs® & News

Nearby

Air Quality

  Air Quality AQ Index Pollutant
Yesterday Moderate
PM2.5
Yesterday Good
OZONE
Current Good
PM2.5
Current Good
OZONE
Saturday Moderate
PM2.5
Saturday Good
OZONE
Sunday Good
OZONE
Sunday Good
PM2.5
Monday Good
OZONE
Monday Good
PM2.5
Tuesday Good
OZONE
Tuesday Good
PM2.5

Snow Depth

Station Depth Elevation
No new snow has been reported.

Earthquake Activity

City Distance Mag. Time & Date
No recent earthquake activity has been reported nearby.
Minimum magnitude displayed is 2.5.

Coastal Water Temperatures

Place Temperature
Holland, MI 69.1 °F

Nearby Weather Stations